Aviation Digital Data Service (ADDS)

Output produced by METARs form (2212 UTC 27 August 2016)
found at http://aviationweather.gov/adds/metars/
 
KAVL 271846Z 2719/2818 15005KT P6SM SCT035 
     TEMPO 2719/2720 VRB10G17KT 5SM -TSRA OVC030CB 
     FM272000 15006KT P6SM VCTS SCT035CB 
     FM280300 15003KT P6SM FEW035 SCT250 
     FM280900 VRB03KT 4SM BR FEW015 SCT200 
     FM281100 VRB03KT 1 1/2SM BR SCT002 BKN015 
     FM281300 13003KT P6SM FEW050 SCT150